createdAt,value
2022-11-03T00:03:09.251Z,97393.00
2022-11-03T00:13:10.997Z,97383.00
2022-11-03T00:18:11.752Z,97369.00
2022-11-03T00:23:12.459Z,97381.00
2022-11-03T00:28:13.276Z,97378.00
2022-11-03T00:33:14.349Z,97376.00
2022-11-03T00:38:15.152Z,97373.00
2022-11-03T00:43:16.010Z,97364.00
2022-11-03T00:48:28.679Z,97362.00
2022-11-03T00:53:31.036Z,97357.00
2022-11-03T00:58:32.399Z,97356.00
2022-11-03T01:03:35.277Z,97353.00
2022-11-03T01:08:36.091Z,97339.00
2022-11-03T01:13:38.547Z,97340.00
2022-11-03T01:18:39.265Z,97335.00
2022-11-03T01:23:40.307Z,97315.00
2022-11-03T01:28:43.449Z,97324.00
2022-11-03T01:33:45.454Z,97322.00
2022-11-03T01:38:46.996Z,97306.00
2022-11-03T01:44:23.378Z,97303.00
2022-11-03T01:50:55.239Z,97302.00
2022-11-03T01:55:57.108Z,97292.00
2022-11-03T02:00:59.702Z,97291.00
2022-11-03T02:06:02.021Z,97283.00
2022-11-03T02:12:05.452Z,97276.00
2022-11-03T02:17:10.474Z,97280.00
2022-11-03T02:30:30.168Z,97278.00
2022-11-03T02:36:27.929Z,97271.00
2022-11-03T02:41:33.547Z,97240.00
2022-11-03T02:46:35.632Z,97230.00
2022-11-03T02:51:36.767Z,97225.00
2022-11-03T02:56:46.877Z,97225.00
2022-11-03T03:02:05.938Z,97207.00
2022-11-03T03:07:14.296Z,97205.00
2022-11-03T03:12:18.089Z,97194.00
2022-11-03T03:17:54.128Z,97184.00
2022-11-03T03:22:59.615Z,97174.00
2022-11-03T03:28:08.883Z,97167.00
2022-11-03T03:33:11.993Z,97156.00
2022-11-03T03:38:17.619Z,97159.00
2022-11-03T03:43:22.667Z,97157.00
2022-11-03T03:48:23.483Z,97156.00
2022-11-03T03:53:28.805Z,97152.00
2022-11-03T03:58:29.527Z,97147.00
2022-11-03T04:03:30.301Z,97145.00
2022-11-03T04:08:31.509Z,97136.00
2022-11-03T04:13:51.369Z,97136.00
2022-11-03T04:19:10.537Z,97129.00
2022-11-03T04:24:11.308Z,97125.00
2022-11-03T04:29:12.042Z,97138.00
2022-11-03T04:34:12.855Z,97136.00
2022-11-03T04:39:19.183Z,97129.00
2022-11-03T04:44:20.002Z,97128.00
2022-11-03T04:49:22.662Z,97122.00
2022-11-03T04:54:23.414Z,97113.00
2022-11-03T04:59:24.788Z,97107.00
2022-11-03T05:04:25.573Z,97083.00
2022-11-03T05:09:29.560Z,97073.00
2022-11-03T05:14:32.101Z,97085.00
2022-11-03T05:19:38.738Z,97080.00
2022-11-03T05:24:39.513Z,97056.00
2022-11-03T05:29:40.275Z,97058.00
2022-11-03T05:34:46.490Z,97047.00
2022-11-03T05:39:49.925Z,97042.00
2022-11-03T05:44:56.846Z,97041.00
2022-11-03T05:50:13.666Z,97030.00
2022-11-03T05:55:39.560Z,97032.00
2022-11-03T06:00:48.094Z,97018.00
2022-11-03T06:05:50.214Z,97013.00
2022-11-03T06:10:53.423Z,97012.00
2022-11-03T06:15:58.402Z,97012.00
2022-11-03T06:21:06.812Z,96993.00
2022-11-03T06:26:26.473Z,96988.00
2022-11-03T06:31:28.483Z,96992.00
2022-11-03T06:36:39.765Z,96987.00
2022-11-03T06:41:40.909Z,96987.00
2022-11-03T06:46:45.014Z,96984.00
2022-11-03T06:51:45.760Z,96977.00
2022-11-03T06:56:47.196Z,96975.00
2022-11-03T07:01:53.762Z,96956.00
2022-11-03T07:07:02.049Z,96945.00
2022-11-03T07:12:14.390Z,96940.00
2022-11-03T07:17:21.040Z,96943.00
2022-11-03T07:22:29.124Z,96949.00
2022-11-03T07:27:35.170Z,96937.00
2022-11-03T07:32:38.685Z,96921.00
2022-11-03T07:37:39.446Z,96912.00
2022-11-03T07:42:40.570Z,96896.00
2022-11-03T07:47:43.093Z,96890.00
2022-11-03T07:52:43.838Z,96897.00
2022-11-03T07:57:44.605Z,96892.00
2022-11-03T08:02:53.467Z,96886.00
2022-11-03T08:07:57.309Z,96876.00
2022-11-03T08:12:58.709Z,96864.00
2022-11-03T08:17:59.662Z,96863.00
2022-11-03T08:23:24.454Z,96869.00
2022-11-03T08:28:28.130Z,96862.00
2022-11-03T08:33:33.172Z,96870.00
2022-11-03T08:38:33.935Z,96878.00
2022-11-03T08:43:35.093Z,96885.00
2022-11-03T08:48:36.561Z,96870.00
2022-11-03T08:53:41.763Z,96863.00
2022-11-03T08:58:43.470Z,96849.00
2022-11-03T09:03:44.350Z,96839.00
2022-11-03T09:14:17.329Z,96812.00
2022-11-03T09:19:18.271Z,96819.00
2022-11-03T09:24:19.405Z,96811.00
2022-11-03T09:29:22.026Z,96813.00
2022-11-03T09:34:22.754Z,96793.00
2022-11-03T09:39:23.544Z,96793.00
2022-11-03T09:44:24.567Z,96765.00
2022-11-03T09:49:27.149Z,96755.00
2022-11-03T09:54:29.334Z,96738.00
2022-11-03T09:59:33.118Z,96720.00
2022-11-03T10:04:33.874Z,96708.00
2022-11-03T10:09:50.623Z,96703.00
2022-11-03T10:14:54.171Z,96702.00
2022-11-03T10:19:55.827Z,96709.00
2022-11-03T10:25:29.586Z,96710.00
2022-11-03T10:30:36.226Z,96694.00
2022-11-03T10:35:49.170Z,96687.00
2022-11-03T10:40:54.705Z,96679.00
2022-11-03T10:51:53.510Z,96651.00
2022-11-03T10:56:54.331Z,96643.00
2022-11-03T11:01:57.284Z,96624.00
2022-11-03T11:06:58.676Z,96616.00
2022-11-03T11:12:33.034Z,96602.00
2022-11-03T11:17:45.053Z,96609.00
2022-11-03T11:22:46.737Z,96615.00
2022-11-03T11:27:58.267Z,96599.00
2022-11-03T11:33:12.279Z,96599.00
2022-11-03T11:38:57.261Z,96571.00
2022-11-03T11:44:50.040Z,96565.00
2022-11-03T11:53:27.620Z,96566.00
2022-11-03T11:58:42.557Z,96549.00
2022-11-03T12:03:44.581Z,96534.00
2022-11-03T12:08:45.401Z,96527.00
2022-11-03T12:13:50.460Z,96520.00
2022-11-03T12:18:52.022Z,96514.00
2022-11-03T12:23:52.839Z,96477.00
2022-11-03T12:28:56.738Z,96457.00
2022-11-03T12:33:57.561Z,96450.00
2022-11-03T12:38:58.312Z,96458.00
2022-11-03T12:44:02.205Z,96465.00
2022-11-03T12:49:03.208Z,96442.00
2022-11-03T12:54:05.899Z,96431.00
2022-11-03T12:59:07.205Z,96430.00
2022-11-03T13:04:09.955Z,96409.00
2022-11-03T13:09:11.165Z,96395.00
2022-11-03T13:14:11.892Z,96382.00
2022-11-03T13:19:12.652Z,96357.00
2022-11-03T13:24:21.208Z,96344.00
2022-11-03T13:29:21.985Z,96348.00
2022-11-03T13:34:23.175Z,96334.00
2022-11-03T13:39:23.990Z,96306.00
2022-11-03T13:44:24.856Z,96297.00
2022-11-03T14:00:27.344Z,96256.00
2022-11-03T14:05:28.389Z,96247.00
2022-11-03T14:10:32.134Z,96247.00
2022-11-03T14:15:35.635Z,96244.00
2022-11-03T14:20:39.390Z,96241.00
2022-11-03T14:25:40.297Z,96233.00
2022-11-03T14:30:41.242Z,96240.00
2022-11-03T14:35:41.979Z,96246.00
2022-11-03T14:41:01.308Z,96233.00
2022-11-03T14:46:02.275Z,96226.00
2022-11-03T14:51:03.333Z,96226.00
2022-11-03T14:56:04.648Z,96217.00
2022-11-03T15:01:05.861Z,96228.00
2022-11-03T15:06:07.417Z,96222.00
2022-11-03T15:11:11.198Z,96223.00
2022-11-03T15:16:15.217Z,96205.00
2022-11-03T15:21:18.717Z,96185.00
2022-11-03T15:26:19.807Z,96170.00
2022-11-03T15:31:23.222Z,96159.00
2022-11-03T15:36:24.318Z,96148.00
2022-11-03T15:41:25.093Z,96150.00
2022-11-03T15:46:26.217Z,96155.00
2022-11-03T15:51:27.083Z,96129.00
2022-11-03T15:56:29.199Z,96108.00
2022-11-03T16:01:30.298Z,96099.00
2022-11-03T16:07:06.674Z,96087.00
2022-11-03T16:12:11.133Z,96084.00
2022-11-03T16:17:12.034Z,96064.00
2022-11-03T16:22:12.862Z,96069.00
2022-11-03T16:27:13.789Z,96071.00
2022-11-03T16:32:14.518Z,96079.00
2022-11-03T16:37:15.547Z,96061.00
2022-11-03T16:42:16.290Z,96061.00
2022-11-03T16:47:17.078Z,96039.00
2022-11-03T16:52:17.801Z,96011.00
2022-11-03T16:57:18.842Z,95990.00
2022-11-03T17:02:19.944Z,95987.00
2022-11-03T17:07:20.797Z,95974.00
2022-11-03T17:12:21.620Z,95960.00
2022-11-03T17:17:22.665Z,95952.00
2022-11-03T17:22:23.641Z,95940.00
2022-11-03T17:28:18.060Z,95928.00
2022-11-03T17:33:18.860Z,95922.00
2022-11-03T17:38:20.131Z,95924.00
2022-11-03T17:43:30.536Z,95917.00
2022-11-03T17:48:34.276Z,95907.00
2022-11-03T17:53:35.108Z,95891.00
2022-11-03T17:58:45.951Z,95884.00
2022-11-03T18:03:47.646Z,95877.00
2022-11-03T18:08:49.450Z,95882.00
2022-11-03T18:13:50.326Z,95883.00
2022-11-03T18:18:51.246Z,95874.00
2022-11-03T18:23:52.268Z,95877.00
2022-11-03T18:28:53.581Z,95881.00
2022-11-03T18:33:54.588Z,95879.00
2022-11-03T18:38:59.701Z,95877.00
2022-11-03T18:44:17.691Z,95872.00
2022-11-03T18:49:22.157Z,95877.00
2022-11-03T18:54:29.572Z,95878.00
2022-11-03T18:59:39.815Z,95871.00
2022-11-03T19:04:43.384Z,95857.00
2022-11-03T19:09:46.769Z,95858.00
2022-11-03T19:14:48.903Z,95848.00
2022-11-03T19:19:49.655Z,95839.00
2022-11-03T19:24:56.164Z,95810.00
2022-11-03T19:29:58.867Z,95817.00
2022-11-03T19:35:07.797Z,95794.00
2022-11-03T19:40:17.583Z,95777.00
2022-11-03T19:45:20.440Z,95768.00
2022-11-03T19:50:28.300Z,95764.00
2022-11-03T19:55:38.317Z,95758.00
2022-11-03T20:00:39.659Z,95748.00
2022-11-03T20:05:45.137Z,95747.00
2022-11-03T20:10:53.604Z,95751.00
2022-11-03T20:16:00.960Z,95748.00
2022-11-03T20:21:05.246Z,95727.00
2022-11-03T20:26:12.476Z,95727.00
2022-11-03T20:31:14.267Z,95738.00
2022-11-03T20:36:18.622Z,95747.00
2022-11-03T20:41:23.532Z,95727.00
2022-11-03T20:46:31.288Z,95730.00
2022-11-03T20:51:53.840Z,95729.00
2022-11-03T20:56:54.716Z,95724.00
2022-11-03T21:01:56.576Z,95730.00
2022-11-03T21:06:57.491Z,95709.00
2022-11-03T21:11:58.272Z,95708.00
2022-11-03T21:17:17.417Z,95744.00
2022-11-03T21:22:54.704Z,95771.00
2022-11-03T21:27:58.647Z,95765.00
2022-11-03T21:33:02.631Z,95772.00
2022-11-03T21:38:04.127Z,95781.00
2022-11-03T21:43:30.225Z,95776.00
2022-11-03T21:48:49.509Z,95815.00
2022-11-03T21:53:55.577Z,95835.00
2022-11-03T21:58:57.166Z,95834.00
2022-11-03T22:04:03.594Z,95821.00
2022-11-03T22:09:04.516Z,95824.00
2022-11-03T22:14:08.272Z,95813.00
2022-11-03T22:19:36.742Z,95821.00
2022-11-03T22:24:59.428Z,95837.00
2022-11-03T22:30:18.722Z,95850.00
2022-11-03T22:35:41.204Z,95833.00
2022-11-03T22:41:03.899Z,95824.00
2022-11-03T22:46:10.171Z,95870.00
2022-11-03T22:51:13.835Z,95889.00
2022-11-03T22:56:15.270Z,95866.00
2022-11-03T23:01:21.520Z,95851.00
2022-11-03T23:06:27.972Z,95847.00
2022-11-03T23:11:34.545Z,95868.00
2022-11-03T23:16:38.772Z,95882.00
2022-11-03T23:21:39.862Z,95882.00
2022-11-03T23:26:41.067Z,95916.00
2022-11-03T23:31:44.037Z,95916.00
2022-11-03T23:36:47.257Z,95906.00
2022-11-03T23:41:52.269Z,95914.00
2022-11-03T23:47:11.915Z,95916.00
2022-11-03T23:52:15.395Z,95919.00
2022-11-03T23:57:37.058Z,95921.00
